Date,TemperatureHighF,TemperatureAvgF,TemperatureLowF,DewpointHighF,DewpointAvgF,DewpointLowF,HumidityHigh,HumidityAvg,HumidityLow,PressureMaxIn,PressureMinIn,WindSpeedMaxMPH,WindSpeedAvgMPH,GustSpeedMaxMPH,PrecipitationSumIn
2014-1-1,8.8,5.3,0.4,2.8,0.0,-5.4,87,78,75,31.01,30.54,19,5,19,0.00
2014-1-2,7.7,-1.0,-8.4,-0.3,-6.7,-14.2,81,76,68,31.11,30.95,10,2,10,0.00
2014-1-3,33.6,19.3,-3.6,27.0,13.1,-8.5,86,77,72,30.95,29.80,33,12,33,0.00
2014-1-4,37.7,18.5,4.3,31.9,12.5,-2.3,87,77,71,30.77,29.80,25,6,25,0.00
2014-1-5,7.2,-0.8,-12.8,-2.2,-9.2,-21.5,74,67,55,31.24,30.75,25,7,25,0.00
2014-1-6,2.0,-7.4,-14.1,-8.6,-15.8,-21.4,76,66,58,31.24,30.91,20,4,20,0.00
2014-1-7,23.6,9.9,-9.0,10.8,1.3,-15.6,75,68,56,30.93,30.54,11,2,11,0.00
2014-1-8,18.9,14.5,9.7,9.1,6.9,3.5,77,71,64,30.87,30.65,15,5,15,0.00
2014-1-9,29.8,18.5,4.9,24.0,12.2,0.1,88,76,66,30.80,30.18,20,8,20,0.00
2014-1-10,33.4,29.3,23.9,31.2,27.0,21.3,93,91,87,30.19,29.74,18,5,18,0.01
2014-1-11,44.9,31.0,20.5,32.0,23.7,17.5,98,75,50,30.04,29.83,18,4,18,0.01
2014-1-12,48.5,40.2,31.8,35.4,29.8,24.8,79,67,53,29.84,29.52,17,5,17,0.00
2014-1-13,46.8,36.1,24.5,31.3,25.2,18.9,82,65,44,30.03,29.72,24,4,24,0.00
2014-1-14,44.2,29.2,12.8,35.2,18.1,6.2,77,63,47,30.60,29.71,28,9,28,0.00
2014-1-15,43.0,21.4,3.3,31.3,12.2,-2.0,80,68,50,30.68,29.87,16,5,25,0.00
2014-1-16,43.7,34.1,12.1,30.2,21.0,1.9,80,59,47,30.39,29.83,35,10,35,0.00
2014-1-17,32.9,19.7,7.2,15.9,3.8,-2.4,72,51,30,30.60,30.01,20,5,20,0.00
2014-1-18,40.9,28.2,14.9,31.1,19.7,10.7,86,71,52,30.37,29.80,34,7,34,0.03
2014-1-19,66.5,39.1,14.2,33.5,23.4,10.5,88,58,23,30.33,29.72,19,4,19,0.01
2014-1-20,44.9,27.5,-0.1,30.1,17.9,-8.3,80,67,49,30.89,29.89,25,6,27,0.00
2014-1-21,26.7,7.4,-7.2,17.0,-5.9,-14.1,73,56,36,31.09,30.44,21,5,21,0.00
2014-1-22,26.6,14.2,-3.8,18.3,5.4,-12.0,81,68,47,31.14,30.41,24,5,24,0.00
2014-1-23,16.0,2.4,-8.9,-2.6,-8.9,-15.1,75,60,40,31.51,30.92,19,4,19,0.00
2014-1-24,50.1,32.4,8.9,37.1,17.8,-6.6,70,55,39,30.92,29.83,26,8,26,0.00
2014-1-25,42.4,33.0,24.9,32.3,22.5,13.1,84,66,41,30.32,29.63,21,5,21,0.00
2014-1-26,51.6,34.0,2.4,34.3,19.4,-10.0,68,55,28,30.66,29.55,34,9,34,0.00
2014-1-27,9.8,0.3,-10.7,-8.3,-12.0,-19.6,70,56,40,31.14,30.65,18,3,18,0.00
2014-1-28,18.2,2.6,-11.5,-1.5,-10.7,-19.4,72,55,35,31.14,30.71,14,2,14,0.00
2014-1-29,45.4,21.0,-3.2,16.5,4.2,-13.2,73,51,28,30.73,29.70,29,9,29,0.00
2014-1-30,40.8,27.6,15.0,23.6,12.5,5.6,74,55,36,30.45,29.46,29,8,29,0.00
2014-1-31,23.0,16.5,9.9,13.4,3.7,-0.9,80,57,46,30.61,30.34,9,3,12,0.00
2014-2-1,22.0,16.5,4.6,18.2,10.6,-1.7,88,77,65,30.78,30.25,18,2,18,0.00
2014-2-2,30.6,10.8,-5.8,14.3,2.8,-10.5,92,71,49,30.95,30.64,15,3,15,0.00
2014-2-3,33.6,19.1,3.6,17.4,9.5,-1.1,90,67,47,30.73,30.53,14,5,14,0.00
2014-2-4,22.4,12.7,1.1,12.8,7.1,-3.4,92,78,66,30.98,30.55,23,8,23,0.00
2014-2-5,8.4,1.4,-7.6,2.1,-4.0,-13.2,87,78,71,31.30,30.98,20,5,20,0.00
2014-2-6,9.6,-2.5,-11.4,1.2,-8.7,-16.8,79,75,65,31.32,30.99,11,2,11,0.00
2014-2-7,17.5,5.8,-6.8,6.3,-0.9,-11.8,80,74,60,30.99,30.58,18,6,18,0.00
2014-2-8,26.0,16.9,10.0,15.8,11.3,4.9,86,79,62,30.61,30.38,17,4,17,0.01
2014-2-9,14.9,6.5,-2.7,10.4,0.2,-8.1,84,75,64,31.07,30.61,12,2,12,0.00
2014-2-10,13.0,2.2,-9.4,2.5,-5.0,-14.4,79,72,57,31.15,30.91,8,1,8,0.01
2014-2-11,19.4,9.5,1.4,12.2,3.0,-4.4,78,74,70,30.99,30.45,23,9,23,0.00
2014-2-12,25.8,19.7,15.9,21.8,14.2,9.0,95,79,73,30.49,30.06,19,6,19,0.00
2014-2-13,49.4,33.4,22.1,33.7,24.2,13.7,87,70,48,30.10,29.85,22,6,22,0.00
2014-2-14,22.8,21.0,19.4,17.0,14.9,14.4,90,77,71,29.93,29.81,17,7,17,0.00
2014-2-15,56.7,26.3,14.6,36.2,18.4,7.4,83,72,34,30.40,29.88,28,9,28,0.00
2014-2-16,32.7,25.3,17.3,24.7,20.0,12.8,92,80,67,30.50,30.09,26,10,26,0.00
2014-2-17,51.9,37.2,27.9,35.4,25.9,19.4,91,67,36,30.12,29.93,24,6,24,0.06
2014-2-18,64.8,43.4,30.4,33.7,26.8,20.2,75,54,27,30.05,29.66,25,6,25,0.00
2014-2-19,52.4,38.1,24.1,30.0,25.1,19.5,84,63,33,30.15,29.65,24,7,24,0.00
2014-2-20,37.9,32.1,22.3,33.7,26.1,15.1,92,79,67,29.98,29.59,31,8,31,0.36
2014-2-21,44.8,28.8,17.7,32.1,21.1,11.9,87,73,55,30.13,29.94,13,3,19,0.04
2014-2-22,38.2,29.1,22.6,23.6,19.8,15.1,88,69,47,30.50,30.08,14,2,14,0.00
2014-2-23,31.4,22.6,16.4,16.0,10.9,7.6,79,61,44,30.78,30.50,15,2,15,0.00
2014-2-24,21.1,19.5,17.1,19.0,14.7,10.2,92,82,67,30.78,30.60,14,4,14,0.01
2014-2-25,17.0,8.7,-1.3,14.1,2.6,-8.1,88,76,65,31.08,30.74,17,4,17,0.00
2014-2-26,31.1,12.0,-7.9,19.5,4.3,-12.7,80,71,60,31.07,30.30,18,3,18,0.01
2014-2-27,14.6,6.9,-2.7,5.7,-3.0,-12.0,75,64,51,30.68,30.35,21,7,21,0.00
2014-2-28,31.7,18.3,6.0,21.6,11.0,-1.3,88,73,54,30.52,30.16,18,6,18,0.01
2014-3-1,14.3,4.1,-1.6,9.8,-1.5,-7.9,82,77,74,31.16,30.51,20,6,20,0.00
2014-3-2,0.7,-4.0,-9.9,-7.6,-11.9,-16.7,75,68,59,31.32,31.15,16,3,16,0.00
2014-3-3,16.5,4.1,-11.8,6.6,-4.6,-17.7,87,67,54,31.28,30.59,26,6,26,0.00
2014-3-4,32.8,19.7,7.7,22.0,11.1,0.5,79,69,58,30.59,30.29,18,5,18,0.04
2014-3-5,30.2,21.8,16.2,21.3,16.2,11.4,87,79,67,30.69,30.47,14,5,14,0.01
2014-3-6,37.7,28.5,18.1,30.6,24.5,14.9,91,85,75,30.65,30.00,24,11,26,0.00
2014-3-7,38.0,31.7,23.6,33.8,27.2,17.2,90,83,72,30.50,29.91,22,6,22,0.00
2014-3-8,38.7,26.1,15.8,22.9,17.7,11.8,85,71,50,30.72,30.49,21,3,21,0.01
2014-3-9,73.7,46.1,22.6,39.7,28.0,16.2,78,54,25,30.55,29.80,25,7,25,0.00
2014-3-10,74.8,54.8,36.5,43.9,35.7,26.8,69,50,31,29.87,29.53,10,3,10,0.00
2014-3-11,49.3,40.0,32.5,37.1,33.5,28.0,91,78,61,30.29,29.43,42,9,42,0.04
2014-3-12,51.0,37.6,27.1,32.0,27.3,23.5,87,68,44,30.38,30.23,12,3,15,0.00
2014-3-13,68.1,45.8,26.7,38.1,28.5,21.7,83,55,26,30.24,29.66,14,4,21,0.00
2014-3-14,57.2,42.7,29.6,32.5,27.4,19.1,76,56,29,30.10,29.63,25,5,25,0.00
2014-3-15,55.2,37.2,26.2,34.3,26.7,19.6,88,67,44,30.50,29.97,34,12,34,0.00
2014-3-16,39.7,28.7,18.9,22.3,15.4,9.0,89,60,33,30.76,30.32,17,4,17,0.00
2014-3-17,60.7,40.4,24.3,31.5,23.6,16.2,76,54,32,30.33,29.45,27,13,27,0.00
2014-3-18,53.7,40.9,29.3,32.6,29.0,25.0,92,64,43,29.98,29.41,23,7,23,0.00
2014-3-19,51.1,37.9,27.7,34.2,28.0,24.1,92,71,38,30.32,29.96,20,4,20,0.11
2014-3-20,63.0,42.9,23.0,33.9,27.1,18.7,86,58,29,30.25,29.86,21,4,21,0.00
2014-3-21,56.2,41.0,27.3,35.0,29.5,20.6,83,65,40,30.45,29.80,26,7,26,0.00
2014-3-22,32.2,24.6,15.9,21.4,11.4,5.6,83,59,36,30.92,30.44,17,4,17,0.00
2014-3-23,38.2,25.0,7.1,14.2,9.7,1.1,80,54,36,30.99,30.56,16,4,16,0.00
2014-3-24,45.2,32.3,20.1,21.6,15.9,10.7,72,51,36,30.57,30.42,21,4,21,0.00
2014-3-25,37.9,27.0,17.8,20.8,10.2,3.1,84,53,27,30.79,30.44,19,4,19,0.00
2014-3-26,65.8,42.0,22.5,40.5,25.3,4.9,86,53,35,30.44,29.58,42,18,42,0.00
2014-3-27,44.4,38.1,31.2,42.8,35.8,27.3,94,91,86,30.02,29.36,30,10,30,0.25
2014-3-28,35.6,29.8,20.9,29.6,25.6,17.6,88,84,78,30.55,30.01,15,3,15,0.02
2014-3-29,54.4,36.9,17.6,35.4,27.5,14.9,91,71,45,30.63,30.14,23,6,23,0.00
2014-3-30,74.0,56.7,39.5,41.4,36.6,31.0,72,49,29,30.14,29.52,29,12,29,0.00
2014-3-31,72.4,48.8,24.3,46.0,32.0,13.6,67,53,36,30.01,29.20,34,14,34,0.00
2014-4-1,42.1,30.0,18.9,22.9,17.8,12.0,75,61,46,30.44,30.01,25,5,25,0.00
2014-4-2,44.4,36.1,23.7,37.3,28.4,16.1,93,74,51,30.35,29.90,27,10,27,0.01
2014-4-3,39.1,36.2,31.9,37.2,34.5,30.0,94,93,93,29.99,29.85,18,6,18,0.05
2014-4-4,42.7,33.7,25.7,35.5,29.5,21.9,94,85,68,30.41,29.99,21,8,21,0.23
2014-4-5,59.9,41.6,23.6,37.2,29.2,20.8,91,65,33,30.41,30.02,28,10,28,0.00
2014-4-6,64.5,51.0,41.8,42.5,37.3,31.6,78,60,42,30.04,29.81,24,7,24,0.00
2014-4-7,66.2,50.3,38.3,46.6,37.3,31.7,91,65,31,30.01,29.81,19,4,19,0.01
2014-4-8,59.7,44.6,32.7,37.5,29.4,19.9,87,60,27,30.25,29.96,20,4,20,0.00
2014-4-9,82.3,55.7,29.4,40.3,30.1,19.5,72,42,21,30.20,29.48,28,7,28,0.00
2014-4-10,60.0,57.6,54.8,41.3,37.2,35.6,51,46,42,29.53,29.44,30,6,30,0.00
2014-4-11,78.2,48.2,35.2,38.2,27.6,22.6,63,47,20,30.14,29.68,20,3,20,0.00
2014-4-12,81.0,67.6,57.1,59.2,51.4,37.0,79,57,42,29.68,29.34,24,6,24,0.00
2014-4-13,59.8,40.9,30.2,51.5,37.0,25.0,93,86,72,30.19,29.48,35,10,35,0.35
2014-4-14,41.2,31.3,25.4,27.6,22.3,18.3,81,69,48,30.50,30.18,23,5,23,0.06
2014-4-15,51.4,36.2,17.7,31.4,23.7,13.2,84,62,43,30.51,29.88,29,9,29,0.00
2014-4-16,67.5,46.2,32.8,39.3,31.0,26.4,80,57,32,30.26,29.63,33,14,33,0.00
2014-4-17,54.6,39.7,29.2,31.4,26.1,22.0,79,60,35,30.58,30.24,17,3,17,0.00
2014-4-18,67.6,50.0,29.6,44.0,34.7,19.4,80,57,41,30.48,30.06,38,11,38,0.00
2014-4-19,77.5,64.9,51.5,53.9,47.3,41.5,69,54,42,30.07,29.87,27,12,27,0.00
2014-4-20,84.0,67.7,55.3,58.0,52.2,46.0,86,59,37,29.92,29.75,17,6,21,0.00
2014-4-21,76.3,63.0,47.5,55.5,42.7,30.4,91,55,20,30.16,29.77,25,5,25,0.04
2014-4-22,67.3,52.9,30.7,40.3,34.4,25.0,82,52,33,30.28,29.94,17,6,21,0.00
2014-4-23,60.0,52.9,48.2,47.2,39.1,35.1,90,60,48,29.95,29.61,37,15,37,0.40
2014-4-24,65.3,53.4,45.8,52.3,45.8,39.2,93,77,47,29.85,29.59,22,4,22,0.17
2014-4-25,78.5,58.8,39.9,48.4,41.8,33.0,85,58,31,29.89,29.68,16,4,16,0.00
2014-4-26,79.8,63.8,45.7,58.6,47.9,38.5,79,58,41,29.71,29.34,42,16,42,0.00
2014-4-27,66.5,60.8,55.0,59.0,53.9,48.4,95,79,62,29.34,29.09,33,18,33,0.25
2014-4-28,66.5,58.6,49.1,57.0,51.5,44.2,93,78,57,29.33,29.07,32,9,32,0.05
2014-4-29,49.4,41.6,36.6,46.6,38.8,33.4,93,90,85,30.04,29.33,19,6,19,0.31
2014-4-30,45.3,41.7,38.0,39.4,37.2,35.2,90,84,76,30.08,30.00,25,8,25,0.02
2014-5-1,50.6,43.5,38.7,41.7,37.8,33.7,90,81,67,30.12,30.00,22,6,22,0.00
2014-5-2,73.3,52.1,33.2,46.1,37.9,29.5,87,62,32,30.12,29.75,21,3,21,0.00
2014-5-3,52.8,50.1,46.4,39.1,38.4,37.5,73,64,57,29.89,29.79,10,2,10,0.00
2014-5-4,63.9,53.7,45.2,44.7,40.4,35.8,79,61,47,30.04,29.81,26,14,33,0.00
2014-5-5,72.0,53.4,43.6,47.5,41.4,37.6,80,66,37,29.90,29.74,23,7,23,0.00
2014-5-6,76.7,63.0,48.9,58.7,49.2,39.2,70,61,50,29.75,29.39,31,12,31,0.00
2014-5-7,94.7,74.1,56.9,66.7,57.5,46.4,90,61,21,29.48,29.24,22,8,26,0.07
2014-5-8,79.9,63.0,47.9,66.8,55.6,41.3,92,79,41,29.78,29.38,31,8,31,0.37
2014-5-9,70.0,56.1,42.9,44.4,40.8,37.9,85,59,35,29.92,29.72,16,4,16,0.00
2014-5-10,84.7,66.6,53.4,59.0,47.2,39.1,83,53,23,29.79,29.50,27,7,27,0.01
2014-5-11,71.3,61.2,53.4,65.0,55.2,39.5,93,81,56,29.84,29.43,32,9,32,1.37
2014-5-12,55.1,49.0,44.9,53.1,46.9,41.9,95,92,88,30.13,29.58,17,7,21,1.29
2014-5-13,61.5,50.3,40.4,44.7,39.5,36.2,89,68,43,30.41,30.13,20,4,20,0.00
2014-5-14,70.7,52.6,35.9,44.2,37.5,32.3,89,61,28,30.42,30.15,24,3,24,0.00
2014-5-15,55.7,45.2,32.5,34.7,30.7,27.3,83,58,40,30.34,30.24,18,4,21,0.00
2014-5-16,57.8,41.1,28.8,37.2,30.2,24.0,84,67,42,30.32,30.15,11,1,11,0.00
2014-5-17,65.9,52.0,33.3,42.0,34.8,29.5,92,56,31,30.29,30.10,9,2,11,0.00
2014-5-18,71.0,58.8,40.8,48.5,42.5,34.5,81,56,40,30.20,29.80,33,10,33,0.00
2014-5-19,80.3,69.4,58.9,65.1,58.2,47.5,82,68,56,29.81,29.44,32,13,32,0.00
2014-5-20,85.2,73.0,60.6,64.4,58.8,48.9,89,63,42,29.74,29.54,19,6,22,0.00
2014-5-21,81.4,67.9,56.3,54.5,49.5,44.2,72,53,35,30.02,29.72,16,4,16,0.00
2014-5-22,77.4,65.0,55.2,55.8,51.3,45.2,84,63,42,30.19,30.00,27,4,27,0.02
2014-5-23,79.7,66.4,52.6,58.3,52.5,48.4,91,64,38,30.15,29.99,21,6,21,0.00
2014-5-24,77.8,68.4,60.2,60.1,54.7,49.6,80,63,42,30.05,29.86,24,8,24,0.00
2014-5-25,80.5,68.7,64.0,71.1,64.7,60.1,95,88,70,29.91,29.69,21,6,21,0.49
2014-5-26,85.0,71.0,62.7,71.6,65.1,60.8,96,83,58,29.88,29.70,15,2,15,0.09
2014-5-27,83.8,73.4,62.7,67.1,62.8,58.1,91,71,48,29.83,29.73,18,3,18,0.00
2014-5-28,83.3,73.1,60.5,69.9,63.1,57.7,92,72,44,29.88,29.80,13,4,13,0.00
2014-5-29,82.8,72.9,60.6,67.4,63.1,57.1,90,72,56,29.92,29.78,19,5,19,0.00
2014-5-30,86.0,76.4,64.8,71.3,65.7,61.5,91,71,51,29.90,29.78,20,6,20,0.00
2014-5-31,85.9,76.8,66.7,69.5,65.7,63.0,91,70,51,29.90,29.67,26,5,26,0.00
2014-6-1,89.3,73.0,61.8,71.6,64.7,59.7,93,77,51,29.69,29.46,26,5,26,0.68
2014-6-2,83.2,70.7,57.8,66.6,59.7,55.4,95,71,41,29.85,29.57,16,1,16,0.03
2014-6-3,78.8,65.5,57.8,66.6,58.5,53.4,89,79,61,29.98,29.55,20,4,20,0.00
2014-6-4,78.7,67.7,60.9,67.7,63.0,59.5,95,86,64,29.79,29.53,13,3,18,0.26
2014-6-5,77.5,65.7,62.1,69.0,62.5,59.9,95,90,71,29.82,29.68,21,4,21,0.31
2014-6-6,86.0,72.2,59.7,72.3,64.1,57.9,96,78,47,29.88,29.68,13,2,13,0.01
2014-6-7,72.8,65.4,57.1,65.1,59.0,52.8,88,80,67,30.03,29.70,18,3,18,0.00
2014-6-8,71.6,62.6,50.9,60.7,55.6,48.7,92,79,62,30.11,29.85,15,5,21,0.00
2014-6-9,69.1,64.2,60.4,62.4,59.5,55.5,92,85,77,29.88,29.80,18,5,18,0.00
2014-6-10,79.2,67.6,54.2,61.6,57.0,51.6,92,71,48,29.86,29.68,22,4,22,0.00
2014-6-11,82.7,70.9,55.7,63.5,58.3,51.9,88,66,44,29.75,29.57,19,5,21,0.00
2014-6-12,70.2,66.6,62.4,57.0,54.2,52.6,72,64,62,29.74,29.69,14,5,14,0.00
2014-6-15,80.0,72.1,63.0,62.5,58.9,57.2,82,64,49,29.80,29.68,8,1,12,0.00
2014-6-16,84.5,72.8,61.2,77.1,67.6,56.6,95,84,63,29.80,29.35,32,12,41,0.85
2014-6-17,90.2,71.2,63.1,76.9,65.3,60.0,92,82,63,29.64,29.41,32,17,39,0.05
2014-6-18,91.2,82.3,73.9,76.7,73.7,70.5,89,76,61,29.52,29.40,31,12,31,0.00
2014-6-19,87.8,80.8,68.7,73.7,66.0,58.6,90,62,46,29.84,29.44,21,3,21,0.00
2014-6-20,91.2,74.8,62.2,71.2,64.0,58.1,92,72,41,29.87,29.67,29,4,29,0.97
2014-6-21,84.0,73.7,64.0,72.7,67.0,60.5,93,80,65,29.90,29.62,41,5,41,0.36
2014-6-22,81.0,72.1,64.0,70.9,66.8,61.3,94,84,65,29.75,29.54,30,5,30,0.46
2014-6-23,80.5,71.5,63.5,65.6,62.6,59.6,94,75,54,29.87,29.70,11,1,11,0.00
2014-6-24,84.8,72.0,60.1,64.4,60.1,55.9,88,68,42,29.90,29.82,10,1,10,0.00
2014-6-25,86.7,73.1,60.4,69.8,64.2,57.8,93,75,51,29.92,29.77,17,3,17,0.01
2014-6-26,86.0,73.6,66.5,75.2,67.4,63.2,91,81,65,29.81,29.59,26,7,26,0.01
2014-6-27,80.0,71.3,64.8,73.5,67.5,62.8,94,88,75,29.69,29.50,27,10,27,0.39
2014-6-28,79.2,71.5,63.2,69.4,65.6,58.2,94,82,65,29.69,29.46,25,4,25,0.31
2014-6-29,84.2,73.7,63.9,76.4,68.8,60.9,94,85,71,29.81,29.51,32,2,32,0.17
2014-6-30,78.0,70.4,61.6,71.8,66.7,56.2,96,89,61,29.72,29.42,17,3,21,0.38
2014-7-1,77.3,66.8,57.2,62.3,56.3,52.1,85,70,51,29.95,29.67,28,5,28,0.00
2014-7-2,73.0,61.2,53.4,56.2,52.4,49.9,90,74,50,30.18,29.93,22,3,22,0.00
2014-7-3,79.0,66.4,50.7,61.2,55.5,47.8,92,70,48,30.22,30.05,17,2,17,0.00
2014-7-4,82.5,72.2,59.0,66.0,61.1,55.1,88,69,53,30.17,29.93,33,11,33,0.00
2014-7-5,86.2,75.0,64.8,77.9,69.1,61.6,94,82,67,29.99,29.67,29,7,29,0.26
2014-7-6,94.9,79.3,67.9,80.7,72.4,66.2,96,81,59,29.68,29.55,7,1,10,0.01
2014-7-7,89.0,75.0,65.3,71.8,66.6,61.6,93,77,51,29.69,29.55,14,1,14,0.02
2014-7-8,82.5,71.8,59.8,62.8,59.5,55.7,88,67,46,29.90,29.67,19,3,19,0.00
2014-7-9,83.0,70.0,56.3,65.1,60.1,53.3,91,73,48,29.98,29.86,11,1,11,0.00
2014-7-10,65.9,63.9,63.0,60.9,60.1,59.6,90,88,84,29.88,29.85,3,0,3,0.00
2014-7-13,87.9,76.8,60.7,72.6,66.9,59.0,96,73,50,29.97,29.77,6,1,14,0.00
2014-7-14,73.4,67.1,55.2,65.5,55.5,48.5,92,68,47,30.15,29.78,11,4,22,0.10
2014-7-15,73.4,61.9,50.3,55.6,51.4,46.9,89,70,48,30.17,30.00,13,2,14,0.00
2014-7-16,76.5,64.1,48.6,57.6,53.0,45.7,92,69,44,30.09,29.92,10,1,10,0.00
2014-7-17,78.2,65.9,55.4,61.4,55.2,51.8,90,70,44,30.04,29.93,16,2,16,0.00
2014-7-18,77.3,67.5,57.6,64.8,60.1,54.9,92,78,62,30.00,29.84,23,4,23,0.00
2014-7-19,80.6,70.7,59.1,69.6,63.3,56.1,92,78,65,29.92,29.74,24,4,24,0.00
2014-7-20,87.8,76.5,63.4,76.2,68.9,60.3,92,78,66,29.75,29.58,25,8,25,0.00
2014-7-21,94.3,82.6,71.3,80.4,74.8,68.2,91,78,59,29.63,29.53,21,6,21,0.00
2014-7-22,88.2,80.9,69.3,75.9,71.5,62.1,86,74,58,30.04,29.56,12,3,15,0.01
2014-7-23,82.3,71.8,59.5,64.5,61.1,55.6,89,71,46,30.16,30.00,12,3,12,0.00
2014-7-24,83.0,71.9,61.4,67.7,62.8,57.8,90,74,58,30.14,29.67,30,10,30,0.00
2014-7-25,91.4,79.8,70.0,78.9,72.1,62.1,89,78,64,29.77,29.46,21,5,21,0.01
2014-7-26,84.8,77.3,69.8,75.6,72.5,68.3,96,86,72,29.75,29.54,21,3,21,0.00
2014-7-27,80.6,71.5,60.6,70.2,61.3,54.4,93,72,51,30.12,29.75,21,4,21,0.01
2014-7-28,79.9,67.0,56.0,61.7,56.9,52.9,91,72,48,30.22,30.09,13,2,13,0.00
2014-7-29,79.4,65.7,52.4,61.9,56.4,49.8,92,74,50,30.19,30.02,6,1,7,0.00
2014-7-30,81.0,66.6,51.0,61.9,55.9,48.8,93,71,41,30.12,29.98,9,1,9,0.00
2014-7-31,85.3,68.4,52.8,65.3,58.6,50.2,92,73,47,30.06,29.89,16,2,16,0.00
2014-8-1,82.9,71.4,60.2,65.7,62.0,56.4,89,73,52,30.01,29.89,13,3,13,0.00
2014-8-2,86.8,73.5,59.1,69.0,64.2,56.5,93,74,50,30.05,29.89,21,2,21,0.25
2014-8-3,85.5,73.2,63.1,71.8,65.7,60.0,92,78,60,30.00,29.86,16,4,20,0.28
2014-8-4,83.8,73.7,64.7,71.9,67.9,62.9,94,83,65,29.95,29.84,12,2,12,0.00
2014-8-5,83.7,74.6,68.1,72.8,68.9,65.6,94,83,64,29.95,29.83,17,5,17,0.05
2014-8-6,73.5,69.4,65.4,69.7,66.6,63.1,94,91,86,29.87,29.80,25,8,25,0.07
2014-8-7,74.8,68.5,64.5,69.2,66.0,62.7,96,92,82,29.87,29.77,15,3,15,0.03
2014-8-8,80.5,71.1,66.9,70.4,67.0,65.1,95,87,69,29.92,29.82,16,5,16,0.00
2014-8-9,79.7,71.7,67.6,70.8,67.8,65.5,95,88,73,29.93,29.81,17,6,17,0.02
2014-8-10,77.4,70.7,66.5,71.5,67.8,64.9,96,91,78,29.95,29.85,13,1,13,0.25
2014-8-11,77.8,68.3,58.0,65.6,60.4,53.1,95,78,52,30.09,29.94,20,3,20,0.00
2014-8-12,79.0,64.9,51.6,60.7,55.6,49.4,93,74,47,30.15,30.00,14,2,14,0.01
2014-8-13,83.0,67.0,50.5,63.7,57.7,48.6,95,74,48,30.15,29.95,11,1,11,0.00
2014-8-14,81.8,70.4,58.7,67.9,61.9,55.1,91,75,60,30.01,29.80,19,5,19,0.00
2014-8-15,73.8,70.0,67.6,68.4,65.1,61.5,94,85,77,29.81,29.70,19,5,19,0.03
2014-8-16,84.3,71.6,65.2,71.7,67.4,63.7,96,88,63,29.78,29.68,10,2,10,0.01
2014-8-17,89.5,77.2,67.9,75.7,70.5,62.7,95,81,60,29.83,29.67,16,1,16,0.00
2014-8-18,91.1,75.3,61.1,72.5,66.6,59.0,94,76,52,29.74,29.57,14,1,14,0.01
2014-8-19,88.3,75.4,63.0,69.2,65.5,59.3,91,73,47,29.68,29.54,7,1,7,0.00
2014-8-20,88.5,75.9,68.5,77.3,70.2,64.9,91,83,68,29.68,29.50,25,9,25,0.00
2014-8-21,91.7,81.2,70.9,76.6,72.1,66.5,88,75,58,29.69,29.49,17,2,17,0.03
2014-8-22,90.8,76.4,69.2,80.1,72.0,66.8,94,87,65,29.79,29.60,16,2,16,0.98
2014-8-23,89.0,76.2,67.3,78.2,71.6,65.5,95,86,68,29.83,29.52,23,6,23,0.13
2014-8-24,88.0,77.8,68.1,73.4,68.1,63.4,88,73,57,29.73,29.51,14,2,14,0.01
2014-8-25,72.2,66.3,62.5,65.2,60.3,54.5,92,82,65,30.03,29.69,24,2,24,0.01
2014-8-26,73.9,67.5,61.4,67.2,63.4,59.5,95,87,77,30.13,29.95,19,3,19,0.41
2014-8-27,72.2,67.5,63.7,70.3,65.7,62.0,96,94,90,30.10,29.92,19,4,19,1.13
2014-8-28,68.9,68.4,67.8,67.7,67.1,66.6,96,96,95,29.94,29.87,13,6,13,0.03
2014-8-30,80.5,69.6,61.7,68.1,64.1,60.5,96,84,56,29.86,29.68,6,2,13,0.00
2014-8-31,82.5,70.6,63.8,74.2,66.5,61.8,95,87,73,29.68,29.40,17,4,21,0.98
2014-9-1,79.3,67.7,59.0,67.9,62.7,56.8,96,85,59,29.87,29.53,30,1,30,0.02
2014-9-2,79.7,69.2,52.7,64.6,60.1,51.0,95,74,54,29.95,29.78,14,1,16,0.01
2014-9-3,85.0,73.0,62.6,74.3,68.2,55.6,94,85,41,29.80,29.43,28,6,28,0.00
2014-9-4,88.0,75.4,64.3,76.1,70.0,55.3,90,84,64,29.87,29.44,15,2,18,0.00
2014-9-5,64.2,59.6,52.1,58.4,55.7,48.9,93,87,77,30.33,29.83,13,2,17,0.36
2014-9-6,73.8,58.9,44.6,58.2,51.1,43.0,95,78,49,30.38,30.22,7,0,7,0.01
2014-9-7,76.3,61.6,47.2,61.8,54.4,45.3,94,79,58,30.25,29.92,18,3,18,0.01
2014-9-8,83.8,68.3,57.1,73.6,62.5,53.5,89,82,68,29.94,29.58,21,6,21,0.01
2014-9-9,76.4,68.2,63.9,71.9,66.0,62.1,96,93,84,29.64,29.47,18,3,18,2.32
2014-9-10,65.9,60.7,51.6,64.7,58.9,49.0,96,94,83,30.15,29.47,19,2,19,0.02
2014-9-11,53.6,51.1,48.9,49.5,47.6,45.9,93,88,79,30.49,30.14,14,3,14,0.02
2014-9-12,55.9,46.8,39.1,47.2,42.7,36.5,94,86,61,30.62,30.46,13,2,14,0.37
2014-9-13,61.9,45.3,33.3,48.7,40.0,31.8,95,83,53,30.58,30.25,23,1,23,0.01
2014-9-14,70.9,56.6,43.0,56.8,50.1,41.0,94,80,58,30.30,30.00,13,2,13,0.00
2014-9-15,63.2,55.9,42.4,55.3,49.3,39.5,92,79,58,30.35,29.97,23,3,23,0.00
2014-9-16,69.5,54.0,38.1,54.6,46.9,36.2,95,79,53,30.36,29.92,12,2,13,0.01
2014-9-17,80.5,61.5,51.8,66.6,56.1,49.5,93,83,61,29.94,29.76,11,1,12,0.00
2014-9-18,75.0,63.9,54.5,63.6,58.4,52.4,95,83,64,30.01,29.85,18,5,18,0.00
2014-9-19,87.2,72.1,60.0,71.2,64.9,57.3,94,79,56,29.87,29.55,22,5,22,0.00
2014-9-20,84.4,73.0,59.4,69.0,63.3,51.0,91,73,49,29.98,29.55,11,1,15,0.02
2014-9-21,71.5,59.1,47.8,54.5,49.8,44.8,91,73,52,30.29,29.97,17,2,18,0.00
2014-9-22,74.5,57.8,41.1,56.9,49.2,39.2,94,76,46,30.42,30.12,11,1,12,0.00
2014-9-23,66.9,59.7,57.2,61.2,54.8,51.5,93,84,69,30.18,30.01,21,7,24,0.19
2014-9-24,73.7,63.9,56.9,64.9,58.6,53.2,92,83,72,30.09,29.99,18,6,21,0.00
2014-9-25,80.6,66.8,54.7,68.5,61.0,53.0,95,83,64,30.17,29.99,15,2,15,0.01
2014-9-26,84.6,69.1,56.9,68.0,60.5,54.8,94,76,50,30.04,29.90,18,4,18,0.00
2014-9-27,81.3,68.5,59.3,64.8,59.9,55.5,91,75,54,30.04,29.90,24,7,24,0.00
2014-9-28,83.3,68.5,55.2,65.9,59.7,52.3,92,75,50,30.09,29.91,18,3,18,0.00
2014-9-29,84.3,69.7,58.4,65.9,60.7,55.9,92,75,45,30.01,29.79,12,2,12,0.00
2014-9-30,65.1,62.0,59.0,63.0,60.0,57.0,95,93,88,29.82,29.65,20,4,20,0.68
2014-10-1,77.5,66.6,59.0,67.1,61.7,57.6,96,85,61,29.70,29.56,33,2,33,0.09
2014-10-2,64.1,56.4,47.1,62.0,53.7,45.0,95,91,75,29.93,29.61,18,2,18,0.24
2014-10-3,50.8,45.1,33.0,45.7,32.6,24.7,93,62,45,30.27,29.90,26,7,30,0.00
2014-10-4,54.9,38.4,30.9,38.9,28.2,25.2,82,68,36,30.25,29.85,16,4,17,0.00
2014-10-5,68.3,51.5,37.2,51.1,42.5,34.0,90,73,45,29.86,29.67,18,2,20,0.01
2014-10-6,69.5,55.1,43.2,49.5,45.5,39.9,92,72,43,29.81,29.59,17,2,17,0.01
2014-10-7,71.8,60.0,50.4,50.6,44.7,38.8,83,60,33,30.02,29.60,25,4,25,0.00
2014-10-8,69.8,54.6,39.1,48.3,40.9,34.2,87,63,34,30.23,30.00,13,1,13,0.12
2014-10-9,61.9,53.2,44.3,51.9,46.5,36.7,93,79,62,30.30,30.01,13,5,17,0.16
2014-10-10,54.8,45.7,35.6,40.2,36.4,30.5,86,71,53,30.43,30.25,13,2,13,0.00
2014-10-11,61.7,44.7,29.0,43.5,35.1,26.7,92,71,45,30.47,30.02,14,2,16,0.00
2014-10-12,64.3,50.3,38.2,51.1,43.9,32.6,93,79,55,30.04,29.68,25,5,25,0.27
2014-10-13,55.9,52.7,50.8,50.7,48.4,43.0,95,86,71,29.84,29.71,23,3,23,0.02
2014-10-14,65.8,53.3,42.3,47.5,41.8,33.6,85,67,42,30.09,29.83,25,4,25,0.00
2014-10-15,42.0,38.5,36.2,35.3,33.5,32.0,86,82,77,30.09,30.07,0,0,1,0.00
2014-11-1,49.9,45.4,40.1,26.2,24.5,23.1,55,44,36,30.58,30.26,25,16,32,0.00
2014-11-2,62.0,50.6,39.7,43.7,36.0,25.1,79,58,47,30.27,29.83,23,12,31,0.00
2014-11-3,63.8,51.0,43.4,53.0,45.0,35.9,87,80,68,30.12,29.74,21,6,21,0.02
2014-11-4,63.5,45.2,32.3,42.1,34.1,28.5,91,68,35,30.35,30.09,11,2,11,0.01
2014-11-5,66.2,48.2,35.3,47.8,37.1,28.7,82,67,45,30.26,30.00,27,4,27,0.00
2014-11-6,51.3,40.1,31.5,34.6,30.2,25.0,82,69,48,30.61,30.22,19,4,19,0.00
2014-11-7,59.3,46.8,32.3,42.3,34.6,26.5,81,63,47,30.37,29.80,29,7,29,0.00
2014-11-8,47.0,40.4,34.2,35.7,29.2,25.0,76,64,50,30.38,30.00,24,4,24,0.00
2014-11-9,55.7,44.5,34.1,40.5,35.1,27.7,80,70,54,30.02,29.52,17,2,17,0.00
2014-11-10,55.4,37.0,21.2,46.2,31.8,17.5,88,81,68,30.32,29.35,26,7,26,0.00
2014-11-11,24.9,19.6,14.0,18.2,12.6,6.9,89,74,66,30.89,30.30,23,7,23,0.00
2014-11-12,14.3,13.8,13.5,7.9,7.4,6.9,76,75,74,30.92,30.88,19,7,19,0.00
2014-11-13,25.2,16.9,6.1,13.9,9.5,0.7,89,73,60,31.05,30.89,13,5,21,0.00
2014-11-14,24.9,8.9,0.8,12.6,2.5,-3.4,92,76,51,31.00,30.60,12,1,12,0.00
2014-11-15,26.4,23.2,12.5,22.9,16.7,7.2,91,77,55,30.62,30.43,23,5,23,0.00
2014-11-16,22.2,11.9,-2.4,16.7,5.8,-6.8,92,76,64,30.66,30.44,23,4,23,0.07
2014-11-17,16.0,10.5,2.7,11.0,3.0,-3.3,82,71,61,30.77,30.50,22,6,22,0.00
2014-11-18,28.9,16.5,2.0,18.7,9.5,-3.1,82,74,61,30.72,30.13,14,2,14,0.00
2014-11-19,30.3,25.6,20.9,24.2,19.2,13.5,85,76,69,30.52,30.12,17,5,20,0.00
2014-11-20,29.8,18.9,8.8,19.8,13.1,4.9,86,78,65,30.68,30.50,9,1,9,0.01
2014-11-21,35.7,26.7,13.0,33.2,21.4,9.0,92,81,68,30.62,30.14,21,7,21,0.01
2014-11-22,52.2,41.7,34.4,49.9,38.9,32.3,94,90,74,30.15,29.53,19,6,19,0.00
2014-11-23,52.3,43.7,30.5,50.3,38.9,22.4,94,83,67,29.68,29.45,27,6,27,0.00
2014-11-24,34.3,27.3,20.5,22.8,17.1,8.9,76,66,51,30.42,29.65,23,9,23,0.00
2014-11-25,42.7,29.4,11.8,32.5,20.4,6.0,81,69,57,30.50,29.96,17,5,17,0.01
2014-11-26,36.8,28.0,16.1,33.4,23.9,10.2,92,84,77,30.87,29.95,25,6,25,0.01
2014-11-27,22.6,15.6,9.9,17.1,7.9,0.3,85,72,56,31.02,30.38,19,5,19,0.00
2014-11-28,51.2,35.0,22.1,34.5,26.6,17.2,87,72,52,30.44,29.63,16,4,16,0.00
2014-11-29,63.9,43.2,25.2,40.7,31.9,19.2,83,66,38,29.85,29.46,26,4,26,0.00
2014-11-30,25.1,15.5,9.3,20.1,4.7,-1.0,81,62,51,31.10,29.83,25,6,26,0.00
2014-12-1,20.0,13.9,11.3,4.4,1.6,-1.1,67,58,43,31.25,30.77,16,4,16,0.00
2014-12-2,43.3,25.2,13.5,17.0,9.7,4.2,67,53,33,30.82,30.21,25,6,25,0.00
2014-12-3,37.4,27.3,19.6,18.7,14.7,11.1,75,59,40,30.75,30.38,15,2,15,0.00
2014-12-4,37.7,29.3,19.7,25.8,19.9,12.1,87,68,56,30.56,30.25,18,6,18,0.00
2014-12-5,47.5,35.2,28.3,41.7,32.3,25.2,95,89,74,30.64,30.25,14,2,14,0.00
2014-12-6,38.2,29.1,22.1,29.4,24.9,19.4,92,85,69,30.93,30.61,12,3,12,0.00
2014-12-7,37.1,33.3,28.2,36.7,31.7,25.6,100,94,90,30.78,30.34,21,8,21,0.00
2014-12-8,50.0,36.5,24.3,35.5,30.2,17.5,95,79,52,30.66,30.31,22,3,22,0.00
2014-12-9,30.5,23.5,15.9,24.4,19.6,12.3,89,85,77,30.84,30.63,9,2,9,0.00
2014-12-10,26.1,25.4,24.3,23.3,22.6,21.5,89,89,88,30.66,30.59,10,4,10,0.00
2014-12-12,55.5,44.7,35.5,46.3,40.3,32.9,97,85,70,30.43,30.20,11,4,16,0.00
2014-12-13,52.4,49.5,46.4,50.0,47.2,43.9,95,92,88,30.20,29.91,19,7,19,0.00
2014-12-14,54.8,53.1,51.3,53.7,51.8,49.9,96,95,94,29.93,29.67,22,9,22,0.17
2014-12-15,51.7,34.8,24.3,50.6,33.0,20.2,96,93,84,30.32,29.65,28,7,28,0.76
2014-12-16,26.0,21.5,14.4,20.6,16.7,11.2,88,81,72,30.77,30.28,23,8,28,0.00
2014-12-17,25.1,19.7,13.2,20.2,14.8,9.6,88,81,68,30.81,30.59,10,1,10,0.00
2014-12-18,29.5,26.7,23.7,26.8,23.0,19.5,92,85,83,30.61,30.50,8,3,9,0.00
2014-12-19,32.6,30.5,28.8,29.4,27.7,26.2,93,89,83,30.52,30.36,17,4,17,0.00
2014-12-20,33.2,30.9,29.8,30.9,29.3,28.0,100,94,91,30.38,30.21,15,5,15,0.00
2014-12-21,41.4,37.9,32.5,39.6,36.3,31.0,95,94,91,30.23,29.68,24,10,24,0.00
2014-12-22,41.5,39.4,32.4,41.0,38.1,30.8,100,95,95,29.70,29.47,19,7,20,0.33
2014-12-23,34.4,32.8,31.8,33.1,31.5,30.4,95,95,95,30.16,29.59,19,3,19,0.28
2014-12-24,31.8,28.6,25.5,30.9,26.8,23.5,100,93,90,30.14,29.85,17,4,17,0.00
2014-12-25,45.0,34.0,26.3,35.8,29.5,24.3,92,84,68,29.94,29.72,16,5,18,0.00
2014-12-26,32.0,29.9,25.1,30.1,27.6,21.7,93,91,89,30.36,29.92,18,4,18,0.01
2014-12-27,25.1,17.6,8.3,23.1,13.9,5.2,92,85,75,30.70,30.34,14,3,15,0.07
2014-12-28,25.8,16.8,7.8,18.9,12.6,4.7,92,84,72,30.62,30.49,13,1,13,0.01
2014-12-29,19.5,13.1,0.2,16.8,9.3,-5.1,89,84,79,31.33,30.61,18,6,22,0.00
2014-12-30,3.2,-2.8,-7.8,-3.3,-8.3,-12.7,81,77,72,31.61,31.32,13,3,13,0.00
2014-12-31,17.5,4.4,-8.4,8.1,-1.7,-12.9,92,76,64,31.44,30.61,14,3,14,0.00
2015-1-1,32.2,18.1,7.3,22.2,12.1,2.2,84,77,66,30.67,30.39,14,1,14,0.00
2015-1-2,31.9,22.5,10.6,25.0,17.8,7.5,92,82,70,30.61,30.24,13,3,13,0.01